sensor_id;sensor_type;location;lat;lon;timestamp;temperature;humidity
5466;DHT22;2755;50.728;7.108;2023-05-29T00:00:51;15.70;1.00
5466;DHT22;2755;50.728;7.108;2023-05-29T00:03:17;16.00;1.00
5466;DHT22;2755;50.728;7.108;2023-05-29T00:10:35;15.80;1.00
5466;DHT22;2755;50.728;7.108;2023-05-29T00:13:02;15.90;1.00
5466;DHT22;2755;50.728;7.108;2023-05-29T00:15:28;15.60;1.00
5466;DHT22;2755;50.728;7.108;2023-05-29T00:22:47;15.40;1.00
5466;DHT22;2755;50.728;7.108;2023-05-29T00:25:14;15.50;1.00
5466;DHT22;2755;50.728;7.108;2023-05-29T00:27:40;15.80;1.00
5466;DHT22;2755;50.728;7.108;2023-05-29T00:30:07;15.50;1.00
5466;DHT22;2755;50.728;7.108;2023-05-29T00:32:32;14.60;2.20
5466;DHT22;2755;50.728;7.108;2023-05-29T00:34:58;15.40;2.90
5466;DHT22;2755;50.728;7.108;2023-05-29T00:37:24;15.80;1.40
5466;DHT22;2755;50.728;7.108;2023-05-29T00:39:49;15.30;3.50
5466;DHT22;2755;50.728;7.108;2023-05-29T00:42:15;15.10;4.60
5466;DHT22;2755;50.728;7.108;2023-05-29T00:44:41;15.00;2.70
5466;DHT22;2755;50.728;7.108;2023-05-29T00:47:07;15.00;2.70
5466;DHT22;2755;50.728;7.108;2023-05-29T00:49:33;15.20;2.40
5466;DHT22;2755;50.728;7.108;2023-05-29T00:54:29;15.20;7.60
5466;DHT22;2755;50.728;7.108;2023-05-29T00:56:59;15.10;7.10
5466;DHT22;2755;50.728;7.108;2023-05-29T00:59:28;14.80;9.70
5466;DHT22;2755;50.728;7.108;2023-05-29T01:01:55;14.80;8.80
5466;DHT22;2755;50.728;7.108;2023-05-29T01:04:22;14.70;11.20
5466;DHT22;2755;50.728;7.108;2023-05-29T01:16:56;14.60;10.20
5466;DHT22;2755;50.728;7.108;2023-05-29T01:25:17;14.50;11.60
5466;DHT22;2755;50.728;7.108;2023-05-29T01:27:45;14.50;11.80
5466;DHT22;2755;50.728;7.108;2023-05-29T01:30:12;14.20;13.80
5466;DHT22;2755;50.728;7.108;2023-05-29T01:32:40;13.60;15.60
5466;DHT22;2755;50.728;7.108;2023-05-29T01:35:07;14.60;14.20
5466;DHT22;2755;50.728;7.108;2023-05-29T01:39:59;14.50;17.30
5466;DHT22;2755;50.728;7.108;2023-05-29T01:42:26;14.50;14.20
5466;DHT22;2755;50.728;7.108;2023-05-29T01:44:53;14.20;15.30
5466;DHT22;2755;50.728;7.108;2023-05-29T01:47:20;14.30;14.40
5466;DHT22;2755;50.728;7.108;2023-05-29T01:49:47;14.30;15.30
5466;DHT22;2755;50.728;7.108;2023-05-29T01:54:41;13.70;17.70
5466;DHT22;2755;50.728;7.108;2023-05-29T01:57:07;14.40;17.60
5466;DHT22;2755;50.728;7.108;2023-05-29T01:59:33;14.10;16.70
5466;DHT22;2755;50.728;7.108;2023-05-29T02:02:07;14.10;18.00
5466;DHT22;2755;50.728;7.108;2023-05-29T02:04:33;13.30;18.30
5466;DHT22;2755;50.728;7.108;2023-05-29T02:06:58;14.60;19.80
5466;DHT22;2755;50.728;7.108;2023-05-29T02:09:24;14.50;19.70
5466;DHT22;2755;50.728;7.108;2023-05-29T02:11:50;13.80;19.70
5466;DHT22;2755;50.728;7.108;2023-05-29T02:14:16;14.30;22.00
5466;DHT22;2755;50.728;7.108;2023-05-29T02:16:41;14.90;20.80
5466;DHT22;2755;50.728;7.108;2023-05-29T02:19:09;13.90;22.40
5466;DHT22;2755;50.728;7.108;2023-05-29T02:21:38;13.80;21.20
5466;DHT22;2755;50.728;7.108;2023-05-29T02:24:04;14.30;22.40
5466;DHT22;2755;50.728;7.108;2023-05-29T02:26:29;13.70;19.60
5466;DHT22;2755;50.728;7.108;2023-05-29T02:28:55;13.70;22.20
5466;DHT22;2755;50.728;7.108;2023-05-29T02:33:48;14.30;19.90
5466;DHT22;2755;50.728;7.108;2023-05-29T02:38:41;13.40;20.30
5466;DHT22;2755;50.728;7.108;2023-05-29T02:43:33;13.80;20.90
5466;DHT22;2755;50.728;7.108;2023-05-29T02:45:58;14.00;21.50
5466;DHT22;2755;50.728;7.108;2023-05-29T02:53:17;13.60;22.60
5466;DHT22;2755;50.728;7.108;2023-05-29T02:55:42;14.00;24.10
5466;DHT22;2755;50.728;7.108;2023-05-29T02:58:08;13.40;21.40
5466;DHT22;2755;50.728;7.108;2023-05-29T03:00:34;13.40;21.40
5466;DHT22;2755;50.728;7.108;2023-05-29T03:03:00;13.90;23.20
5466;DHT22;2755;50.728;7.108;2023-05-29T03:05:26;13.50;23.80
5466;DHT22;2755;50.728;7.108;2023-05-29T03:07:51;13.50;22.00
5466;DHT22;2755;50.728;7.108;2023-05-29T03:12:44;13.20;24.80
5466;DHT22;2755;50.728;7.108;2023-05-29T03:15:10;13.60;22.70
5466;DHT22;2755;50.728;7.108;2023-05-29T03:17:35;12.60;22.20
5466;DHT22;2755;50.728;7.108;2023-05-29T03:20:03;12.90;22.20
5466;DHT22;2755;50.728;7.108;2023-05-29T03:22:32;13.00;23.00
5466;DHT22;2755;50.728;7.108;2023-05-29T03:24:57;13.20;25.60
5466;DHT22;2755;50.728;7.108;2023-05-29T03:29:49;12.90;23.70
5466;DHT22;2755;50.728;7.108;2023-05-29T03:32:15;13.10;26.80
5466;DHT22;2755;50.728;7.108;2023-05-29T03:34:40;12.80;24.20
5466;DHT22;2755;50.728;7.108;2023-05-29T03:37:06;13.20;24.70
5466;DHT22;2755;50.728;7.108;2023-05-29T03:39:31;12.70;24.30
5466;DHT22;2755;50.728;7.108;2023-05-29T03:44:23;12.50;24.70
5466;DHT22;2755;50.728;7.108;2023-05-29T03:46:49;12.70;24.10
5466;DHT22;2755;50.728;7.108;2023-05-29T03:49:15;12.70;24.00
5466;DHT22;2755;50.728;7.108;2023-05-29T03:51:41;12.70;23.80
5466;DHT22;2755;50.728;7.108;2023-05-29T03:54:06;12.70;24.10
5466;DHT22;2755;50.728;7.108;2023-05-29T03:56:32;12.50;23.90
5466;DHT22;2755;50.728;7.108;2023-05-29T03:58:57;12.60;24.60
5466;DHT22;2755;50.728;7.108;2023-05-29T04:01:23;12.50;24.10
5466;DHT22;2755;50.728;7.108;2023-05-29T04:03:49;12.50;24.00
5466;DHT22;2755;50.728;7.108;2023-05-29T04:06:15;12.60;27.00
5466;DHT22;2755;50.728;7.108;2023-05-29T04:08:41;12.60;24.70
5466;DHT22;2755;50.728;7.108;2023-05-29T04:11:07;12.40;26.80
5466;DHT22;2755;50.728;7.108;2023-05-29T04:13:33;12.60;23.40
5466;DHT22;2755;50.728;7.108;2023-05-29T04:15:59;12.70;24.60
5466;DHT22;2755;50.728;7.108;2023-05-29T04:18:25;12.80;25.40
5466;DHT22;2755;50.728;7.108;2023-05-29T04:20:51;12.40;24.80
5466;DHT22;2755;50.728;7.108;2023-05-29T04:23:16;12.80;26.70
5466;DHT22;2755;50.728;7.108;2023-05-29T04:25:42;12.70;25.50
5466;DHT22;2755;50.728;7.108;2023-05-29T04:28:09;12.10;26.90
5466;DHT22;2755;50.728;7.108;2023-05-29T04:33:02;12.40;27.10
5466;DHT22;2755;50.728;7.108;2023-05-29T04:35:28;12.70;24.80
5466;DHT22;2755;50.728;7.108;2023-05-29T04:37:54;12.50;24.70
5466;DHT22;2755;50.728;7.108;2023-05-29T04:40:21;12.20;24.50
5466;DHT22;2755;50.728;7.108;2023-05-29T04:42:47;13.50;24.90
5466;DHT22;2755;50.728;7.108;2023-05-29T04:50:15;13.20;21.70
5466;DHT22;2755;50.728;7.108;2023-05-29T04:52:41;13.60;25.00
5466;DHT22;2755;50.728;7.108;2023-05-29T05:00:03;13.80;20.40
5466;DHT22;2755;50.728;7.108;2023-05-29T05:05:09;14.00;18.10
5466;DHT22;2755;50.728;7.108;2023-05-29T05:07:34;13.80;17.40
5466;DHT22;2755;50.728;7.108;2023-05-29T05:10:01;13.80;15.80
5466;DHT22;2755;50.728;7.108;2023-05-29T05:12:26;13.60;15.20
5466;DHT22;2755;50.728;7.108;2023-05-29T05:14:52;14.10;13.00
5466;DHT22;2755;50.728;7.108;2023-05-29T05:17:18;14.70;13.50
5466;DHT22;2755;50.728;7.108;2023-05-29T05:19:44;15.10;13.30
5466;DHT22;2755;50.728;7.108;2023-05-29T05:22:10;14.80;14.80
5466;DHT22;2755;50.728;7.108;2023-05-29T05:24:36;13.80;11.10
5466;DHT22;2755;50.728;7.108;2023-05-29T05:27:01;14.90;12.80
5466;DHT22;2755;50.728;7.108;2023-05-29T05:29:27;15.40;9.40
5466;DHT22;2755;50.728;7.108;2023-05-29T05:31:52;15.20;12.20
5466;DHT22;2755;50.728;7.108;2023-05-29T05:36:44;14.80;9.40
5466;DHT22;2755;50.728;7.108;2023-05-29T05:39:09;15.60;6.80
5466;DHT22;2755;50.728;7.108;2023-05-29T05:41:35;15.90;9.30
5466;DHT22;2755;50.728;7.108;2023-05-29T05:46:27;15.90;5.50
5466;DHT22;2755;50.728;7.108;2023-05-29T05:48:53;16.40;5.30
5466;DHT22;2755;50.728;7.108;2023-05-29T05:51:22;16.40;4.70
5466;DHT22;2755;50.728;7.108;2023-05-29T05:53:47;16.80;1.00
5466;DHT22;2755;50.728;7.108;2023-05-29T05:56:13;17.00;1.00
5466;DHT22;2755;50.728;7.108;2023-05-29T05:58:39;17.10;1.00
5466;DHT22;2755;50.728;7.108;2023-05-29T06:01:05;17.10;1.00
5466;DHT22;2755;50.728;7.108;2023-05-29T06:03:32;17.70;1.00
5466;DHT22;2755;50.728;7.108;2023-05-29T06:05:58;17.70;1.00
5466;DHT22;2755;50.728;7.108;2023-05-29T06:08:24;18.00;1.00
5466;DHT22;2755;50.728;7.108;2023-05-29T06:13:15;17.70;1.00
5466;DHT22;2755;50.728;7.108;2023-05-29T06:15:43;18.20;1.00
5466;DHT22;2755;50.728;7.108;2023-05-29T06:18:08;18.30;1.00
5466;DHT22;2755;50.728;7.108;2023-05-29T06:20:34;18.70;1.00
5466;DHT22;2755;50.728;7.108;2023-05-29T06:28:01;17.70;1.00
5466;DHT22;2755;50.728;7.108;2023-05-29T06:30:27;18.40;1.00
5466;DHT22;2755;50.728;7.108;2023-05-29T06:35:18;19.10;1.00
5466;DHT22;2755;50.728;7.108;2023-05-29T06:37:45;18.60;1.00
5466;DHT22;2755;50.728;7.108;2023-05-29T06:40:14;18.30;1.00
5466;DHT22;2755;50.728;7.108;2023-05-29T06:42:43;18.20;1.00
5466;DHT22;2755;50.728;7.108;2023-05-29T06:45:12;18.30;1.00
5466;DHT22;2755;50.728;7.108;2023-05-29T06:47:39;18.70;1.00
5466;DHT22;2755;50.728;7.108;2023-05-29T06:50:06;18.50;1.00
5466;DHT22;2755;50.728;7.108;2023-05-29T06:52:32;18.40;1.00
5466;DHT22;2755;50.728;7.108;2023-05-29T06:57:23;19.10;1.00
5466;DHT22;2755;50.728;7.108;2023-05-29T06:59:49;19.40;1.00
5466;DHT22;2755;50.728;7.108;2023-05-29T07:02:15;19.00;1.00
5466;DHT22;2755;50.728;7.108;2023-05-29T07:04:41;19.70;1.00
5466;DHT22;2755;50.728;7.108;2023-05-29T07:07:06;20.10;1.00
5466;DHT22;2755;50.728;7.108;2023-05-29T07:09:32;20.20;1.00
5466;DHT22;2755;50.728;7.108;2023-05-29T07:11:58;18.90;1.00
5466;DHT22;2755;50.728;7.108;2023-05-29T07:14:23;20.30;1.00
5466;DHT22;2755;50.728;7.108;2023-05-29T07:16:49;19.80;1.00
5466;DHT22;2755;50.728;7.108;2023-05-29T07:19:15;20.00;1.00
5466;DHT22;2755;50.728;7.108;2023-05-29T07:24:08;21.00;1.00
5466;DHT22;2755;50.728;7.108;2023-05-29T07:26:34;20.50;1.00
5466;DHT22;2755;50.728;7.108;2023-05-29T07:28:59;21.00;1.00
5466;DHT22;2755;50.728;7.108;2023-05-29T07:31:25;20.70;1.00
5466;DHT22;2755;50.728;7.108;2023-05-29T07:33:50;21.20;1.00
5466;DHT22;2755;50.728;7.108;2023-05-29T07:38:46;21.70;1.00
5466;DHT22;2755;50.728;7.108;2023-05-29T07:41:11;22.10;1.00
5466;DHT22;2755;50.728;7.108;2023-05-29T07:43:37;21.80;1.00
5466;DHT22;2755;50.728;7.108;2023-05-29T07:46:03;21.40;1.00
5466;DHT22;2755;50.728;7.108;2023-05-29T07:50:54;21.70;1.00
5466;DHT22;2755;50.728;7.108;2023-05-29T07:53:20;21.60;1.00
5466;DHT22;2755;50.728;7.108;2023-05-29T07:55:46;21.60;1.00
5466;DHT22;2755;50.728;7.108;2023-05-29T07:58:11;21.70;1.00
5466;DHT22;2755;50.728;7.108;2023-05-29T08:00:37;22.10;1.00
5466;DHT22;2755;50.728;7.108;2023-05-29T08:03:04;22.50;1.00
5466;DHT22;2755;50.728;7.108;2023-05-29T08:05:29;22.80;1.00
5466;DHT22;2755;50.728;7.108;2023-05-29T08:08:00;23.00;1.00
5466;DHT22;2755;50.728;7.108;2023-05-29T08:10:25;22.90;1.00
5466;DHT22;2755;50.728;7.108;2023-05-29T08:12:51;23.00;1.00
5466;DHT22;2755;50.728;7.108;2023-05-29T08:15:18;22.40;1.00
5466;DHT22;2755;50.728;7.108;2023-05-29T08:17:43;23.30;1.00
5466;DHT22;2755;50.728;7.108;2023-05-29T08:20:09;23.60;1.00
5466;DHT22;2755;50.728;7.108;2023-05-29T08:22:35;22.70;1.00
5466;DHT22;2755;50.728;7.108;2023-05-29T08:25:01;23.40;1.00
5466;DHT22;2755;50.728;7.108;2023-05-29T08:27:27;23.30;1.00
5466;DHT22;2755;50.728;7.108;2023-05-29T08:29:52;23.50;1.00
5466;DHT22;2755;50.728;7.108;2023-05-29T08:32:20;23.90;1.00
5466;DHT22;2755;50.728;7.108;2023-05-29T08:37:12;23.80;1.00
5466;DHT22;2755;50.728;7.108;2023-05-29T08:39:38;23.80;1.00
5466;DHT22;2755;50.728;7.108;2023-05-29T08:44:43;24.00;1.00
5466;DHT22;2755;50.728;7.108;2023-05-29T08:47:14;24.00;1.00
5466;DHT22;2755;50.728;7.108;2023-05-29T08:49:47;24.00;1.00
5466;DHT22;2755;50.728;7.108;2023-05-29T08:52:24;24.40;1.00
5466;DHT22;2755;50.728;7.108;2023-05-29T08:54:51;24.70;1.00
5466;DHT22;2755;50.728;7.108;2023-05-29T08:59:44;25.00;1.00
5466;DHT22;2755;50.728;7.108;2023-05-29T09:02:14;23.20;1.00
5466;DHT22;2755;50.728;7.108;2023-05-29T09:04:44;25.10;1.00
5466;DHT22;2755;50.728;7.108;2023-05-29T09:09:45;25.20;1.00
5466;DHT22;2755;50.728;7.108;2023-05-29T09:12:11;25.10;1.00
5466;DHT22;2755;50.728;7.108;2023-05-29T09:17:05;24.60;1.00
5466;DHT22;2755;50.728;7.108;2023-05-29T09:19:32;25.20;1.00
5466;DHT22;2755;50.728;7.108;2023-05-29T09:22:05;25.10;1.00
5466;DHT22;2755;50.728;7.108;2023-05-29T09:24:35;24.90;1.00
5466;DHT22;2755;50.728;7.108;2023-05-29T09:27:04;24.90;1.00
5466;DHT22;2755;50.728;7.108;2023-05-29T09:29:31;25.20;1.00
5466;DHT22;2755;50.728;7.108;2023-05-29T09:31:57;26.00;1.00
5466;DHT22;2755;50.728;7.108;2023-05-29T09:34:24;26.10;1.00
5466;DHT22;2755;50.728;7.108;2023-05-29T09:39:18;26.20;1.00
5466;DHT22;2755;50.728;7.108;2023-05-29T09:41:44;26.30;1.00
5466;DHT22;2755;50.728;7.108;2023-05-29T09:49:12;26.50;1.00
5466;DHT22;2755;50.728;7.108;2023-05-29T09:51:38;27.20;1.00
5466;DHT22;2755;50.728;7.108;2023-05-29T09:54:17;26.50;1.00
5466;DHT22;2755;50.728;7.108;2023-05-29T09:59:13;26.20;1.00
5466;DHT22;2755;50.728;7.108;2023-05-29T10:01:44;25.50;1.00
5466;DHT22;2755;50.728;7.108;2023-05-29T10:04:13;26.60;1.00
5466;DHT22;2755;50.728;7.108;2023-05-29T10:06:45;26.60;1.00
5466;DHT22;2755;50.728;7.108;2023-05-29T10:11:43;27.60;1.00
5466;DHT22;2755;50.728;7.108;2023-05-29T10:16:41;26.80;1.00
5466;DHT22;2755;50.728;7.108;2023-05-29T10:19:12;26.40;1.00
5466;DHT22;2755;50.728;7.108;2023-05-29T10:21:40;26.30;1.00
5466;DHT22;2755;50.728;7.108;2023-05-29T10:24:07;27.20;1.00
5466;DHT22;2755;50.728;7.108;2023-05-29T10:26:40;26.40;1.00
5466;DHT22;2755;50.728;7.108;2023-05-29T10:35:05;25.90;1.00
5466;DHT22;2755;50.728;7.108;2023-05-29T10:37:55;26.10;1.00
5466;DHT22;2755;50.728;7.108;2023-05-29T10:40:24;26.10;1.00
5466;DHT22;2755;50.728;7.108;2023-05-29T10:47:55;26.00;1.00
5466;DHT22;2755;50.728;7.108;2023-05-29T10:50:40;26.20;1.00
5466;DHT22;2755;50.728;7.108;2023-05-29T10:53:07;26.30;1.00
5466;DHT22;2755;50.728;7.108;2023-05-29T10:55:36;26.60;1.00
5466;DHT22;2755;50.728;7.108;2023-05-29T11:05:23;27.10;1.00
5466;DHT22;2755;50.728;7.108;2023-05-29T11:07:58;26.60;1.00
5466;DHT22;2755;50.728;7.108;2023-05-29T11:13:26;26.70;1.00
5466;DHT22;2755;50.728;7.108;2023-05-29T11:16:12;26.40;1.00
5466;DHT22;2755;50.728;7.108;2023-05-29T11:18:42;26.50;1.00
5466;DHT22;2755;50.728;7.108;2023-05-29T11:24:07;26.30;1.00
5466;DHT22;2755;50.728;7.108;2023-05-29T11:26:33;26.60;1.00
5466;DHT22;2755;50.728;7.108;2023-05-29T11:29:00;26.60;1.00
5466;DHT22;2755;50.728;7.108;2023-05-29T11:31:28;26.50;1.00
5466;DHT22;2755;50.728;7.108;2023-05-29T11:33:59;26.90;1.00
5466;DHT22;2755;50.728;7.108;2023-05-29T11:36:26;26.40;1.00
5466;DHT22;2755;50.728;7.108;2023-05-29T11:41:18;27.60;1.00
5466;DHT22;2755;50.728;7.108;2023-05-29T11:46:18;27.20;1.00
5466;DHT22;2755;50.728;7.108;2023-05-29T11:48:47;27.40;1.00
5466;DHT22;2755;50.728;7.108;2023-05-29T11:51:13;27.00;1.00
5466;DHT22;2755;50.728;7.108;2023-05-29T11:56:11;27.30;1.00
5466;DHT22;2755;50.728;7.108;2023-05-29T11:58:40;28.00;1.00
5466;DHT22;2755;50.728;7.108;2023-05-29T12:01:09;27.20;1.00
5466;DHT22;2755;50.728;7.108;2023-05-29T12:03:42;27.00;1.00
5466;DHT22;2755;50.728;7.108;2023-05-29T12:06:11;28.40;1.00
5466;DHT22;2755;50.728;7.108;2023-05-29T12:08:38;27.40;1.00
5466;DHT22;2755;50.728;7.108;2023-05-29T12:11:04;27.80;1.00
5466;DHT22;2755;50.728;7.108;2023-05-29T12:13:30;27.20;1.00
5466;DHT22;2755;50.728;7.108;2023-05-29T12:16:04;27.60;1.00
5466;DHT22;2755;50.728;7.108;2023-05-29T12:20:57;26.20;1.00
5466;DHT22;2755;50.728;7.108;2023-05-29T12:23:23;28.60;1.00
5466;DHT22;2755;50.728;7.108;2023-05-29T12:25:51;27.60;1.00
5466;DHT22;2755;50.728;7.108;2023-05-29T12:28:18;27.40;1.00
5466;DHT22;2755;50.728;7.108;2023-05-29T12:30:44;25.80;1.00
5466;DHT22;2755;50.728;7.108;2023-05-29T12:33:31;27.90;1.00
5466;DHT22;2755;50.728;7.108;2023-05-29T12:36:07;27.80;1.00
5466;DHT22;2755;50.728;7.108;2023-05-29T12:38:49;27.90;1.00
5466;DHT22;2755;50.728;7.108;2023-05-29T12:41:29;28.10;1.00
5466;DHT22;2755;50.728;7.108;2023-05-29T12:43:56;28.10;1.00
5466;DHT22;2755;50.728;7.108;2023-05-29T12:46:26;26.90;1.00
5466;DHT22;2755;50.728;7.108;2023-05-29T12:48:55;28.60;1.00
5466;DHT22;2755;50.728;7.108;2023-05-29T12:51:28;27.80;1.00
5466;DHT22;2755;50.728;7.108;2023-05-29T12:53:53;27.30;1.00
5466;DHT22;2755;50.728;7.108;2023-05-29T12:58:50;28.90;1.00
5466;DHT22;2755;50.728;7.108;2023-05-29T13:01:16;27.90;1.00
5466;DHT22;2755;50.728;7.108;2023-05-29T13:03:42;28.80;1.00
5466;DHT22;2755;50.728;7.108;2023-05-29T13:08:34;27.70;1.00
5466;DHT22;2755;50.728;7.108;2023-05-29T13:13:26;28.10;1.00
5466;DHT22;2755;50.728;7.108;2023-05-29T13:20:43;27.30;1.00
5466;DHT22;2755;50.728;7.108;2023-05-29T13:23:09;27.10;1.00
5466;DHT22;2755;50.728;7.108;2023-05-29T13:25:34;26.80;1.00
5466;DHT22;2755;50.728;7.108;2023-05-29T13:28:00;27.50;1.00
5466;DHT22;2755;50.728;7.108;2023-05-29T13:32:52;26.00;1.00
5466;DHT22;2755;50.728;7.108;2023-05-29T13:40:11;26.20;1.00
5466;DHT22;2755;50.728;7.108;2023-05-29T13:47:32;25.20;1.00
5466;DHT22;2755;50.728;7.108;2023-05-29T13:57:31;25.70;1.00
5466;DHT22;2755;50.728;7.108;2023-05-29T13:59:57;24.10;1.00
5466;DHT22;2755;50.728;7.108;2023-05-29T14:07:16;24.40;1.00
5466;DHT22;2755;50.728;7.108;2023-05-29T14:09:42;23.90;1.00
5466;DHT22;2755;50.728;7.108;2023-05-29T14:14:33;24.00;1.00
5466;DHT22;2755;50.728;7.108;2023-05-29T14:17:00;23.60;1.00
5466;DHT22;2755;50.728;7.108;2023-05-29T14:21:51;22.30;1.00
5466;DHT22;2755;50.728;7.108;2023-05-29T14:24:17;23.80;1.00
5466;DHT22;2755;50.728;7.108;2023-05-29T14:26:44;23.40;1.00
5466;DHT22;2755;50.728;7.108;2023-05-29T14:29:12;22.50;1.00
5466;DHT22;2755;50.728;7.108;2023-05-29T14:34:04;23.50;1.00
5466;DHT22;2755;50.728;7.108;2023-05-29T14:38:56;23.40;1.00
5466;DHT22;2755;50.728;7.108;2023-05-29T14:43:47;23.00;1.00
5466;DHT22;2755;50.728;7.108;2023-05-29T14:48:39;22.80;1.00
5466;DHT22;2755;50.728;7.108;2023-05-29T14:51:05;22.60;1.00
5466;DHT22;2755;50.728;7.108;2023-05-29T14:55:57;23.00;1.00
5466;DHT22;2755;50.728;7.108;2023-05-29T14:58:23;20.80;1.00
5466;DHT22;2755;50.728;7.108;2023-05-29T15:00:49;23.50;1.00
5466;DHT22;2755;50.728;7.108;2023-05-29T15:03:14;22.30;1.00
5466;DHT22;2755;50.728;7.108;2023-05-29T15:05:40;21.60;1.00
5466;DHT22;2755;50.728;7.108;2023-05-29T15:10:31;23.30;1.00
5466;DHT22;2755;50.728;7.108;2023-05-29T15:12:59;22.90;1.00
5466;DHT22;2755;50.728;7.108;2023-05-29T15:15:25;22.80;1.00
5466;DHT22;2755;50.728;7.108;2023-05-29T15:17:52;22.80;1.00
5466;DHT22;2755;50.728;7.108;2023-05-29T15:20:25;22.80;1.00
5466;DHT22;2755;50.728;7.108;2023-05-29T15:25:18;22.50;1.00
5466;DHT22;2755;50.728;7.108;2023-05-29T15:27:44;22.40;1.00
5466;DHT22;2755;50.728;7.108;2023-05-29T15:32:41;21.50;1.00
5466;DHT22;2755;50.728;7.108;2023-05-29T15:35:11;22.60;1.00
5466;DHT22;2755;50.728;7.108;2023-05-29T15:40:03;22.40;1.00
5466;DHT22;2755;50.728;7.108;2023-05-29T15:42:29;22.70;1.00
5466;DHT22;2755;50.728;7.108;2023-05-29T15:44:56;21.80;1.00
5466;DHT22;2755;50.728;7.108;2023-05-29T15:47:21;22.50;1.00
5466;DHT22;2755;50.728;7.108;2023-05-29T15:52:13;22.00;1.00
5466;DHT22;2755;50.728;7.108;2023-05-29T15:54:39;22.10;1.00
5466;DHT22;2755;50.728;7.108;2023-05-29T15:57:05;21.60;1.00
5466;DHT22;2755;50.728;7.108;2023-05-29T16:01:58;21.70;1.00
5466;DHT22;2755;50.728;7.108;2023-05-29T16:04:23;21.60;1.00
5466;DHT22;2755;50.728;7.108;2023-05-29T16:06:49;22.00;1.00
5466;DHT22;2755;50.728;7.108;2023-05-29T16:09:15;22.20;1.00
5466;DHT22;2755;50.728;7.108;2023-05-29T16:14:08;21.80;1.00
5466;DHT22;2755;50.728;7.108;2023-05-29T16:16:33;22.00;1.00
5466;DHT22;2755;50.728;7.108;2023-05-29T16:19:00;21.50;1.00
5466;DHT22;2755;50.728;7.108;2023-05-29T16:26:26;21.30;1.00
5466;DHT22;2755;50.728;7.108;2023-05-29T16:31:19;23.10;1.00
5466;DHT22;2755;50.728;7.108;2023-05-29T16:33:45;22.60;1.00
5466;DHT22;2755;50.728;7.108;2023-05-29T16:38:37;21.30;1.00
5466;DHT22;2755;50.728;7.108;2023-05-29T16:41:02;21.10;1.00
5466;DHT22;2755;50.728;7.108;2023-05-29T16:45:55;21.20;1.00
5466;DHT22;2755;50.728;7.108;2023-05-29T16:48:20;21.00;1.00
5466;DHT22;2755;50.728;7.108;2023-05-29T16:53:12;21.00;1.00
5466;DHT22;2755;50.728;7.108;2023-05-29T16:58:04;20.80;1.00
5466;DHT22;2755;50.728;7.108;2023-05-29T17:00:29;21.10;1.00
5466;DHT22;2755;50.728;7.108;2023-05-29T17:05:21;20.90;1.00
5466;DHT22;2755;50.728;7.108;2023-05-29T17:10:13;20.60;1.00
5466;DHT22;2755;50.728;7.108;2023-05-29T17:12:39;21.50;1.00
5466;DHT22;2755;50.728;7.108;2023-05-29T17:20:07;20.80;1.00
5466;DHT22;2755;50.728;7.108;2023-05-29T17:22:33;20.60;1.00
5466;DHT22;2755;50.728;7.108;2023-05-29T17:24:58;21.20;1.00
5466;DHT22;2755;50.728;7.108;2023-05-29T17:29:50;20.30;1.00
5466;DHT22;2755;50.728;7.108;2023-05-29T17:32:15;20.70;1.00
5466;DHT22;2755;50.728;7.108;2023-05-29T17:34:41;21.00;1.00
5466;DHT22;2755;50.728;7.108;2023-05-29T17:39:33;20.00;1.00
5466;DHT22;2755;50.728;7.108;2023-05-29T17:41:58;20.30;1.00
5466;DHT22;2755;50.728;7.108;2023-05-29T17:44:25;20.10;1.00
5466;DHT22;2755;50.728;7.108;2023-05-29T17:49:17;20.30;1.00
5466;DHT22;2755;50.728;7.108;2023-05-29T17:54:09;20.30;1.00
5466;DHT22;2755;50.728;7.108;2023-05-29T17:56:38;19.80;1.00
5466;DHT22;2755;50.728;7.108;2023-05-29T18:01:30;19.70;1.00
5466;DHT22;2755;50.728;7.108;2023-05-29T18:06:21;19.90;1.00
5466;DHT22;2755;50.728;7.108;2023-05-29T18:08:47;19.60;1.00
5466;DHT22;2755;50.728;7.108;2023-05-29T18:11:13;19.70;1.00
5466;DHT22;2755;50.728;7.108;2023-05-29T18:16:05;19.40;1.00
5466;DHT22;2755;50.728;7.108;2023-05-29T18:18:38;19.00;1.00
5466;DHT22;2755;50.728;7.108;2023-05-29T18:21:04;19.80;1.00
5466;DHT22;2755;50.728;7.108;2023-05-29T18:23:30;18.70;1.00
5466;DHT22;2755;50.728;7.108;2023-05-29T18:25:56;19.10;1.00
5466;DHT22;2755;50.728;7.108;2023-05-29T18:28:21;19.10;1.00
5466;DHT22;2755;50.728;7.108;2023-05-29T18:30:47;18.30;1.00
5466;DHT22;2755;50.728;7.108;2023-05-29T18:33:13;19.00;1.00
5466;DHT22;2755;50.728;7.108;2023-05-29T18:35:39;19.70;1.00
5466;DHT22;2755;50.728;7.108;2023-05-29T18:38:05;19.00;1.00
5466;DHT22;2755;50.728;7.108;2023-05-29T18:40:31;18.80;1.00
5466;DHT22;2755;50.728;7.108;2023-05-29T18:42:56;18.50;1.00
5466;DHT22;2755;50.728;7.108;2023-05-29T18:45:22;18.90;1.00
5466;DHT22;2755;50.728;7.108;2023-05-29T18:50:14;18.50;1.00
5466;DHT22;2755;50.728;7.108;2023-05-29T18:52:40;18.40;1.00
5466;DHT22;2755;50.728;7.108;2023-05-29T18:55:06;18.80;1.00
5466;DHT22;2755;50.728;7.108;2023-05-29T18:57:32;18.70;1.00
5466;DHT22;2755;50.728;7.108;2023-05-29T19:02:24;18.70;1.00
5466;DHT22;2755;50.728;7.108;2023-05-29T19:04:50;18.50;1.00
5466;DHT22;2755;50.728;7.108;2023-05-29T19:07:16;18.70;1.00
5466;DHT22;2755;50.728;7.108;2023-05-29T19:12:09;19.30;1.00
5466;DHT22;2755;50.728;7.108;2023-05-29T19:14:35;18.70;1.00
5466;DHT22;2755;50.728;7.108;2023-05-29T19:17:02;18.30;1.00
5466;DHT22;2755;50.728;7.108;2023-05-29T19:19:29;18.20;1.00
5466;DHT22;2755;50.728;7.108;2023-05-29T19:21:55;18.80;1.00
5466;DHT22;2755;50.728;7.108;2023-05-29T19:24:21;17.70;1.00
5466;DHT22;2755;50.728;7.108;2023-05-29T19:26:46;18.50;1.00
5466;DHT22;2755;50.728;7.108;2023-05-29T19:29:12;18.40;1.00
5466;DHT22;2755;50.728;7.108;2023-05-29T19:31:38;18.40;1.00
5466;DHT22;2755;50.728;7.108;2023-05-29T19:34:04;18.20;1.00
5466;DHT22;2755;50.728;7.108;2023-05-29T19:36:33;17.90;1.00
5466;DHT22;2755;50.728;7.108;2023-05-29T19:41:26;19.40;1.00
5466;DHT22;2755;50.728;7.108;2023-05-29T19:43:52;17.80;1.00
5466;DHT22;2755;50.728;7.108;2023-05-29T19:46:17;17.60;1.00
5466;DHT22;2755;50.728;7.108;2023-05-29T19:56:05;18.40;1.00
5466;DHT22;2755;50.728;7.108;2023-05-29T20:00:57;17.60;1.00
5466;DHT22;2755;50.728;7.108;2023-05-29T20:03:24;17.20;1.00
5466;DHT22;2755;50.728;7.108;2023-05-29T20:22:53;17.10;1.00
5466;DHT22;2755;50.728;7.108;2023-05-29T20:30:12;17.20;1.00
5466;DHT22;2755;50.728;7.108;2023-05-29T20:32:37;16.40;1.00
5466;DHT22;2755;50.728;7.108;2023-05-29T20:35:04;16.40;1.00
5466;DHT22;2755;50.728;7.108;2023-05-29T20:42:25;16.50;1.00
5466;DHT22;2755;50.728;7.108;2023-05-29T20:44:51;16.40;1.00
5466;DHT22;2755;50.728;7.108;2023-05-29T20:47:17;16.20;1.00
5466;DHT22;2755;50.728;7.108;2023-05-29T20:54:35;16.20;1.00
5466;DHT22;2755;50.728;7.108;2023-05-29T20:57:01;16.00;1.00
5466;DHT22;2755;50.728;7.108;2023-05-29T21:01:55;16.10;1.00
5466;DHT22;2755;50.728;7.108;2023-05-29T21:04:21;15.90;1.00
5466;DHT22;2755;50.728;7.108;2023-05-29T21:06:47;16.20;1.00
5466;DHT22;2755;50.728;7.108;2023-05-29T21:11:39;15.90;1.00
5466;DHT22;2755;50.728;7.108;2023-05-29T21:14:05;16.00;1.00
5466;DHT22;2755;50.728;7.108;2023-05-29T21:16:31;15.70;1.00
5466;DHT22;2755;50.728;7.108;2023-05-29T21:18:57;15.60;1.00
5466;DHT22;2755;50.728;7.108;2023-05-29T21:21:22;16.10;1.00
5466;DHT22;2755;50.728;7.108;2023-05-29T21:23:48;16.10;1.00
5466;DHT22;2755;50.728;7.108;2023-05-29T21:28:41;15.60;1.00
5466;DHT22;2755;50.728;7.108;2023-05-29T21:31:07;16.10;1.00
5466;DHT22;2755;50.728;7.108;2023-05-29T21:33:33;16.30;1.00
5466;DHT22;2755;50.728;7.108;2023-05-29T21:35:59;15.80;1.00
5466;DHT22;2755;50.728;7.108;2023-05-29T21:40:51;15.70;1.00